createdAt,value
2023-04-28T00:00:21.787Z,15.15
2023-04-28T00:02:49.380Z,15.15
2023-04-28T00:05:16.556Z,15.14
2023-04-28T00:07:43.712Z,15.15
2023-04-28T00:10:10.792Z,15.14
2023-04-28T00:12:38.100Z,15.12
2023-04-28T00:15:05.222Z,15.14
2023-04-28T00:17:32.134Z,15.16
2023-04-28T00:19:59.196Z,15.14
2023-04-28T00:22:26.110Z,15.14
2023-04-28T00:24:53.102Z,15.15
2023-04-28T00:27:20.764Z,15.13
2023-04-28T00:29:47.649Z,15.14
2023-04-28T00:32:14.559Z,15.14
2023-04-28T00:34:41.519Z,15.13
2023-04-28T00:37:08.362Z,15.13
2023-04-28T00:39:35.192Z,15.15
2023-04-28T00:42:02.534Z,15.14
2023-04-28T00:44:29.509Z,15.14
2023-04-28T00:46:57.828Z,15.16
2023-04-28T00:49:24.680Z,15.15
2023-04-28T00:51:51.481Z,15.13
2023-04-28T00:54:18.770Z,15.18
2023-04-28T00:56:45.755Z,15.16
2023-04-28T00:59:12.657Z,15.15
2023-04-28T01:01:39.505Z,15.16
2023-04-28T01:04:06.597Z,15.16
2023-04-28T01:06:34.080Z,15.17
2023-04-28T01:09:00.980Z,15.15
2023-04-28T01:11:27.791Z,15.14
2023-04-28T01:13:54.830Z,15.14
2023-04-28T01:16:21.710Z,15.14
2023-04-28T01:18:48.800Z,15.16
2023-04-28T01:21:15.893Z,15.16
2023-04-28T01:23:46.742Z,15.16
2023-04-28T01:26:13.648Z,15.16
2023-04-28T01:28:40.636Z,15.14
2023-04-28T01:31:07.462Z,15.15
2023-04-28T01:33:34.330Z,15.13
2023-04-28T01:36:01.174Z,15.13
2023-04-28T01:38:28.001Z,15.15
2023-04-28T01:40:55.764Z,15.16
2023-04-28T01:43:22.750Z,15.16
2023-04-28T01:45:49.634Z,15.15
2023-04-28T01:48:16.438Z,15.16
2023-04-28T01:50:43.388Z,15.14
2023-04-28T01:53:10.229Z,15.14
2023-04-28T01:55:38.481Z,15.15
2023-04-28T01:58:05.407Z,15.15
2023-04-28T02:00:32.234Z,15.14
2023-04-28T02:02:59.171Z,15.15
2023-04-28T02:05:26.379Z,15.15
2023-04-28T02:07:53.202Z,15.14
2023-04-28T02:10:20.123Z,15.14
2023-04-28T02:12:46.956Z,15.14
2023-04-28T02:15:14.295Z,15.15
2023-04-28T02:17:41.443Z,15.14
2023-04-28T02:20:09.057Z,15.14
2023-04-28T02:22:36.042Z,15.13
2023-04-28T02:25:03.572Z,15.13
2023-04-28T02:27:30.543Z,15.13
2023-04-28T02:29:57.710Z,15.14
2023-04-28T02:32:24.600Z,15.13
2023-04-28T02:34:55.634Z,15.14
2023-04-28T02:37:22.558Z,15.13
2023-04-28T02:39:49.468Z,15.12
2023-04-28T02:42:16.449Z,15.13
2023-04-28T02:44:43.236Z,15.14
2023-04-28T02:47:10.163Z,15.12
2023-04-28T02:49:36.971Z,15.12
2023-04-28T02:52:03.865Z,15.14
2023-04-28T02:54:31.018Z,15.13
2023-04-28T02:56:58.526Z,15.13
2023-04-28T02:59:25.646Z,15.11
2023-04-28T03:01:52.477Z,15.11
2023-04-28T03:04:19.926Z,15.11
2023-04-28T03:06:47.613Z,15.12
2023-04-28T03:09:14.928Z,15.11
2023-04-28T03:11:41.944Z,15.11
2023-04-28T03:14:08.778Z,15.13
2023-04-28T03:16:35.647Z,15.11
2023-04-28T03:19:02.525Z,15.11
2023-04-28T03:21:29.889Z,15.13
2023-04-28T03:23:56.685Z,15.14
2023-04-28T03:26:23.592Z,15.12
2023-04-28T03:28:50.460Z,15.10
2023-04-28T03:31:17.245Z,15.10
2023-04-28T03:33:45.768Z,15.10
2023-04-28T03:36:12.727Z,15.08
2023-04-28T03:38:39.631Z,15.09
2023-04-28T03:41:06.480Z,15.08
2023-04-28T03:43:35.609Z,15.09
2023-04-28T03:46:02.640Z,15.08
2023-04-28T03:48:29.466Z,15.09
2023-04-28T03:50:56.328Z,15.09
2023-04-28T03:53:23.132Z,15.09
2023-04-28T03:55:50.001Z,15.09
2023-04-28T03:58:17.035Z,15.07
2023-04-28T04:00:43.856Z,15.07
2023-04-28T04:03:10.865Z,15.08
2023-04-28T04:05:40.367Z,15.07
2023-04-28T04:08:07.266Z,15.07
2023-04-28T04:10:34.045Z,15.06
2023-04-28T04:13:00.926Z,15.05
2023-04-28T04:15:27.744Z,15.06
2023-04-28T04:17:54.662Z,15.06
2023-04-28T04:20:21.485Z,15.06
2023-04-28T04:22:48.303Z,15.06
2023-04-28T04:25:15.182Z,15.05
2023-04-28T04:27:41.993Z,15.05
2023-04-28T04:30:09.353Z,15.03
2023-04-28T04:32:36.199Z,15.02
2023-04-28T04:35:03.065Z,15.02
2023-04-28T04:37:29.972Z,15.02
2023-04-28T04:39:56.736Z,15.00
2023-04-28T04:42:25.990Z,14.99
2023-04-28T04:44:53.135Z,14.99
2023-04-28T04:47:20.471Z,14.98
2023-04-28T04:49:49.084Z,14.97
2023-04-28T04:52:15.995Z,14.97
2023-04-28T04:54:42.890Z,14.97
2023-04-28T04:57:09.948Z,14.98
2023-04-28T04:59:36.809Z,14.96
2023-04-28T05:02:03.670Z,14.96
2023-04-28T05:04:30.662Z,14.94
2023-04-28T05:06:57.603Z,14.94
2023-04-28T05:09:24.435Z,14.93
2023-04-28T05:11:51.290Z,14.92
2023-04-28T05:14:18.492Z,14.94
2023-04-28T05:16:45.684Z,14.93
2023-04-28T05:19:12.551Z,14.93
2023-04-28T05:21:39.529Z,14.93
2023-04-28T05:24:06.520Z,14.92
2023-04-28T05:26:33.547Z,14.93
2023-04-28T05:29:00.436Z,14.93
2023-04-28T05:31:27.300Z,14.91
2023-04-28T05:33:54.122Z,14.93
2023-04-28T05:36:21.001Z,14.92
2023-04-28T05:38:47.845Z,14.93
2023-04-28T05:41:14.701Z,14.95
2023-04-28T05:43:41.582Z,14.94
2023-04-28T05:46:18.234Z,14.93
2023-04-28T05:48:49.002Z,14.92
2023-04-28T05:51:15.982Z,14.94
2023-04-28T05:53:42.849Z,14.94
2023-04-28T05:56:09.829Z,14.96
2023-04-28T05:58:36.790Z,14.94
2023-04-28T06:01:03.650Z,14.96
2023-04-28T06:03:30.665Z,14.93
2023-04-28T06:05:57.738Z,14.94
2023-04-28T06:08:24.606Z,14.96
2023-04-28T06:10:51.496Z,14.97
2023-04-28T06:13:18.451Z,14.98
2023-04-28T06:15:45.448Z,14.98
2023-04-28T06:18:12.402Z,14.96
2023-04-28T06:20:39.251Z,14.99
2023-04-28T06:23:06.966Z,14.99
2023-04-28T06:25:33.835Z,14.99
2023-04-28T06:28:00.751Z,15.00
2023-04-28T06:30:27.589Z,15.02
2023-04-28T06:32:54.766Z,15.01
2023-04-28T06:35:23.005Z,15.03
2023-04-28T06:37:49.829Z,15.04
2023-04-28T06:40:17.105Z,15.05
2023-04-28T06:42:43.989Z,15.05
2023-04-28T06:45:11.155Z,15.06
2023-04-28T06:47:38.829Z,15.06
2023-04-28T06:50:06.043Z,15.07
2023-04-28T06:52:38.421Z,15.08
2023-04-28T06:55:07.911Z,15.09
2023-04-28T06:57:34.781Z,15.10
2023-04-28T07:00:02.272Z,15.11
2023-04-28T07:02:29.201Z,15.13
2023-04-28T07:04:56.172Z,15.15
2023-04-28T07:07:23.017Z,15.15
2023-04-28T07:09:50.009Z,15.15
2023-04-28T07:12:16.828Z,15.15
2023-04-28T07:14:43.716Z,15.16
2023-04-28T07:17:11.044Z,15.16
2023-04-28T07:19:37.911Z,15.18
2023-04-28T07:22:04.797Z,15.18
2023-04-28T07:24:31.650Z,15.18
2023-04-28T07:26:58.633Z,15.18
2023-04-28T07:29:25.472Z,15.18
2023-04-28T07:31:52.308Z,15.19
2023-04-28T07:34:19.207Z,15.19
2023-04-28T07:36:46.066Z,15.20
2023-04-28T07:39:12.969Z,15.21
2023-04-28T07:41:41.532Z,15.21
2023-04-28T07:44:11.043Z,15.22
2023-04-28T07:46:38.283Z,15.20
2023-04-28T07:49:05.170Z,15.22
2023-04-28T07:51:31.969Z,15.23
2023-04-28T07:53:58.911Z,15.23
2023-04-28T07:56:26.433Z,15.25
2023-04-28T07:58:53.435Z,15.26
2023-04-28T08:01:20.376Z,15.27
2023-04-28T08:03:47.592Z,15.27
2023-04-28T08:06:14.730Z,15.29
2023-04-28T08:08:42.063Z,15.31
2023-04-28T08:11:08.891Z,15.31
2023-04-28T08:13:35.772Z,15.33
2023-04-28T08:16:02.712Z,15.33
2023-04-28T08:18:29.721Z,15.34
2023-04-28T08:20:56.552Z,15.37
2023-04-28T08:23:23.431Z,15.39
2023-04-28T08:25:50.480Z,15.40
2023-04-28T08:28:17.244Z,15.43
2023-04-28T08:30:44.280Z,15.44
2023-04-28T08:33:11.140Z,15.47
2023-04-28T08:35:38.110Z,15.50
2023-04-28T08:38:05.598Z,15.52
2023-04-28T08:40:32.432Z,15.52
2023-04-28T08:43:00.572Z,15.54
2023-04-28T08:45:31.022Z,15.55
2023-04-28T08:48:00.348Z,15.57
2023-04-28T08:50:28.978Z,15.56
2023-04-28T08:52:57.131Z,15.57
2023-04-28T08:55:24.125Z,15.58
2023-04-28T08:57:54.966Z,15.60
2023-04-28T09:00:21.900Z,15.60
2023-04-28T09:02:48.895Z,15.62
2023-04-28T09:05:16.061Z,15.62
2023-04-28T09:07:46.895Z,15.63
2023-04-28T09:10:24.898Z,15.63
2023-04-28T09:12:53.585Z,15.64
2023-04-28T09:15:31.792Z,15.65
2023-04-28T09:18:01.231Z,15.66
2023-04-28T09:20:29.470Z,15.67
2023-04-28T09:23:17.551Z,15.69
2023-04-28T09:26:03.743Z,15.71
2023-04-28T09:28:32.164Z,15.71
2023-04-28T09:30:59.171Z,15.71
2023-04-28T09:33:26.542Z,15.73
2023-04-28T09:35:54.245Z,15.74
2023-04-28T09:38:22.252Z,15.74
2023-04-28T09:41:02.153Z,15.76
2023-04-28T09:43:31.287Z,15.78
2023-04-28T09:46:02.759Z,15.80
2023-04-28T09:48:35.062Z,15.81
2023-04-28T09:51:04.769Z,15.84
2023-04-28T09:53:32.266Z,15.84
2023-04-28T09:56:01.352Z,15.85
2023-04-28T09:58:29.230Z,15.85
2023-04-28T10:00:58.206Z,15.86
2023-04-28T10:03:29.764Z,15.87
2023-04-28T10:05:58.813Z,15.88
2023-04-28T10:08:27.678Z,15.90
2023-04-28T10:10:54.969Z,15.91
2023-04-28T10:13:22.908Z,15.93
2023-04-28T10:15:51.694Z,15.96
2023-04-28T10:18:18.905Z,15.98
2023-04-28T10:20:50.202Z,16.01
2023-04-28T10:23:19.815Z,16.02
2023-04-28T10:25:49.176Z,16.04
2023-04-28T10:28:16.567Z,16.06
2023-04-28T10:30:43.404Z,16.06
2023-04-28T10:33:16.250Z,16.10
2023-04-28T10:35:45.390Z,16.12
2023-04-28T10:38:13.191Z,16.13
2023-04-28T10:40:40.981Z,16.16
2023-04-28T10:43:34.803Z,16.21
2023-04-28T10:46:04.103Z,16.27
2023-04-28T10:48:33.941Z,16.31
2023-04-28T10:51:06.270Z,16.35
2023-04-28T10:53:45.777Z,16.44
2023-04-28T10:56:19.883Z,16.49
2023-04-28T10:58:50.984Z,16.53
2023-04-28T11:01:26.639Z,16.56
2023-04-28T11:04:18.185Z,16.58
2023-04-28T11:07:11.408Z,16.60
2023-04-28T11:09:38.251Z,16.61
2023-04-28T11:12:11.349Z,16.63
2023-04-28T11:14:41.028Z,16.65
2023-04-28T11:17:09.841Z,16.66
2023-04-28T11:19:40.977Z,16.67
2023-04-28T11:22:20.227Z,16.67
2023-04-28T11:24:59.988Z,16.67
2023-04-28T11:27:28.127Z,16.68
2023-04-28T11:29:54.922Z,16.69
2023-04-28T11:32:32.584Z,16.71
2023-04-28T11:34:59.541Z,16.73
2023-04-28T11:37:27.406Z,16.76
2023-04-28T11:39:54.352Z,16.79
2023-04-28T11:42:21.291Z,16.83
2023-04-28T11:44:53.016Z,16.87
2023-04-28T11:47:33.960Z,16.92
2023-04-28T11:50:02.201Z,16.96
2023-04-28T11:52:29.375Z,17.01
2023-04-28T11:54:58.222Z,17.05
2023-04-28T11:57:25.612Z,17.10
2023-04-28T11:59:52.814Z,17.15
2023-04-28T12:02:29.902Z,17.19
2023-04-28T12:04:57.226Z,17.22
2023-04-28T12:07:24.940Z,17.26
2023-04-28T12:10:10.974Z,17.30
2023-04-28T12:15:08.456Z,17.35
2023-04-28T12:17:38.111Z,17.38
2023-04-28T12:20:07.406Z,17.41
2023-04-28T12:22:51.012Z,17.46
2023-04-28T12:25:22.374Z,17.48
2023-04-28T12:28:02.880Z,17.50
2023-04-28T12:30:32.591Z,17.54
2023-04-28T12:32:59.537Z,17.58
2023-04-28T12:35:28.009Z,17.62
2023-04-28T12:37:56.520Z,17.65
2023-04-28T12:40:24.645Z,17.70
2023-04-28T12:42:51.794Z,17.74
2023-04-28T12:45:18.791Z,17.80
2023-04-28T12:47:46.394Z,17.86
2023-04-28T12:50:13.632Z,17.90
2023-04-28T12:52:40.836Z,17.93
2023-04-28T12:55:08.438Z,17.99
2023-04-28T12:57:38.983Z,18.04
2023-04-28T13:00:07.782Z,18.10
2023-04-28T13:02:35.099Z,18.15
2023-04-28T13:05:02.258Z,18.17
2023-04-28T13:07:30.663Z,18.19
2023-04-28T13:09:58.673Z,18.21
2023-04-28T13:12:25.542Z,18.24
2023-04-28T13:14:52.630Z,18.24
2023-04-28T13:17:20.374Z,18.24
2023-04-28T13:19:47.954Z,18.23
2023-04-28T13:22:16.734Z,18.23
2023-04-28T13:24:43.927Z,18.23
2023-04-28T13:27:11.176Z,18.23
2023-04-28T13:29:38.300Z,18.22
2023-04-28T13:32:06.062Z,18.23
2023-04-28T13:34:33.258Z,18.23
2023-04-28T13:37:00.157Z,18.25
2023-04-28T13:39:26.965Z,18.27
2023-04-28T13:41:53.740Z,18.29
2023-04-28T13:44:21.229Z,18.32
2023-04-28T13:46:48.109Z,18.31
2023-04-28T13:49:14.972Z,18.30
2023-04-28T13:51:41.978Z,18.29
2023-04-28T13:54:10.691Z,18.28
2023-04-28T13:56:37.965Z,18.25
2023-04-28T13:59:05.067Z,18.22
2023-04-28T14:01:31.999Z,18.20
2023-04-28T14:03:59.236Z,18.17
2023-04-28T14:06:27.534Z,18.14
2023-04-28T14:08:54.394Z,18.12
2023-04-28T14:11:21.337Z,18.08
2023-04-28T14:13:48.203Z,18.04
2023-04-28T14:16:15.141Z,18.02
2023-04-28T14:18:42.026Z,17.99
2023-04-28T14:21:08.919Z,17.97
2023-04-28T14:23:35.828Z,17.93
2023-04-28T14:26:02.797Z,17.90
2023-04-28T14:28:29.920Z,17.88
2023-04-28T14:30:56.849Z,17.85
2023-04-28T14:33:24.449Z,17.82
2023-04-28T14:35:51.377Z,17.80
2023-04-28T14:38:18.186Z,17.76
2023-04-28T14:40:44.999Z,17.73
2023-04-28T14:43:11.888Z,17.70
2023-04-28T14:45:38.825Z,17.65
2023-04-28T14:48:07.716Z,17.62
2023-04-28T14:50:34.648Z,17.60
2023-04-28T14:53:05.720Z,17.57
2023-04-28T14:55:33.549Z,17.55
2023-04-28T14:58:00.380Z,17.51
2023-04-28T15:00:27.308Z,17.49
2023-04-28T15:02:54.382Z,17.47
2023-04-28T15:05:21.344Z,17.43
2023-04-28T15:07:48.305Z,17.41
2023-04-28T15:10:15.473Z,17.38
2023-04-28T15:12:43.074Z,17.36
2023-04-28T15:15:10.392Z,17.33
2023-04-28T15:17:37.244Z,17.31
2023-04-28T15:20:05.340Z,17.30
2023-04-28T15:22:32.228Z,17.29
2023-04-28T15:25:00.337Z,17.28
2023-04-28T15:27:27.203Z,17.26
2023-04-28T15:29:54.290Z,17.24
2023-04-28T15:32:21.684Z,17.22
2023-04-28T15:34:49.291Z,17.23
2023-04-28T15:37:38.133Z,17.21
2023-04-28T15:40:10.111Z,17.21
2023-04-28T15:42:37.890Z,17.19
2023-04-28T15:45:05.827Z,17.18
2023-04-28T15:47:33.214Z,17.18
2023-04-28T15:50:00.256Z,17.19
2023-04-28T15:52:27.639Z,17.18
2023-04-28T15:54:57.346Z,17.17
2023-04-28T15:57:24.308Z,17.19
2023-04-28T15:59:51.958Z,17.18
2023-04-28T16:02:19.295Z,17.18
2023-04-28T16:04:47.104Z,17.18
2023-04-28T16:07:14.311Z,17.19
2023-04-28T16:09:41.227Z,17.18
2023-04-28T16:12:08.776Z,17.19
2023-04-28T16:14:36.585Z,17.20
2023-04-28T16:17:03.738Z,17.21
2023-04-28T16:19:30.643Z,17.20
2023-04-28T16:21:57.496Z,17.22
2023-04-28T16:24:24.937Z,17.21
2023-04-28T16:26:52.145Z,17.22
2023-04-28T16:29:18.923Z,17.24
2023-04-28T16:31:46.002Z,17.24
2023-04-28T16:34:13.143Z,17.25
2023-04-28T16:36:40.382Z,17.25
2023-04-28T16:39:07.354Z,17.25
2023-04-28T16:41:34.319Z,17.25
2023-04-28T16:44:01.116Z,17.27
2023-04-28T16:46:28.040Z,17.26
2023-04-28T16:48:54.870Z,17.27
2023-04-28T16:51:22.265Z,17.28
2023-04-28T16:53:49.069Z,17.29
2023-04-28T16:56:17.165Z,17.29
2023-04-28T16:58:44.099Z,17.30
2023-04-28T17:01:11.162Z,17.30
2023-04-28T17:03:42.077Z,17.32
2023-04-28T17:06:09.445Z,17.32
2023-04-28T17:08:36.637Z,17.33
2023-04-28T17:11:04.685Z,17.34
2023-04-28T17:13:32.483Z,17.32
2023-04-28T17:16:00.517Z,17.33
2023-04-28T17:18:27.650Z,17.33
2023-04-28T17:20:54.870Z,17.33
2023-04-28T17:23:22.036Z,17.34
2023-04-28T17:25:48.946Z,17.33
2023-04-28T17:28:15.859Z,17.35
2023-04-28T17:30:47.201Z,17.34
2023-04-28T17:33:14.638Z,17.33
2023-04-28T17:35:41.599Z,17.33
2023-04-28T17:38:08.409Z,17.33
2023-04-28T17:40:35.305Z,17.31
2023-04-28T17:43:02.879Z,17.32
2023-04-28T17:45:29.999Z,17.30
2023-04-28T17:48:00.435Z,17.29
2023-04-28T17:50:27.462Z,17.29
2023-04-28T17:52:54.436Z,17.27
2023-04-28T17:55:21.515Z,17.26
2023-04-28T17:57:48.337Z,17.25
2023-04-28T18:00:15.569Z,17.23
2023-04-28T18:02:42.521Z,17.21
2023-04-28T18:05:09.629Z,17.19
2023-04-28T18:07:36.536Z,17.18
2023-04-28T18:10:03.680Z,17.16
2023-04-28T18:12:30.630Z,17.15
2023-04-28T18:14:58.156Z,17.14
2023-04-28T18:17:26.376Z,17.11
2023-04-28T18:19:57.030Z,17.10
2023-04-28T18:22:24.072Z,17.09
2023-04-28T18:24:51.484Z,17.08
2023-04-28T18:27:19.085Z,17.05
2023-04-28T18:29:45.958Z,17.05
2023-04-28T18:32:14.755Z,17.02
2023-04-28T18:34:43.485Z,17.01
2023-04-28T18:37:10.761Z,17.00
2023-04-28T18:39:37.587Z,16.99
2023-04-28T18:42:04.497Z,16.96
2023-04-28T18:44:31.445Z,16.94
2023-04-28T18:46:58.823Z,16.93
2023-04-28T18:49:25.950Z,16.93
2023-04-28T18:51:52.897Z,16.91
2023-04-28T18:54:19.954Z,16.89
2023-04-28T18:56:48.153Z,16.88
2023-04-28T18:59:15.099Z,16.88
2023-04-28T19:01:42.095Z,16.86
2023-04-28T19:04:09.360Z,16.84
2023-04-28T19:06:36.484Z,16.83
2023-04-28T19:09:03.443Z,16.81
2023-04-28T19:11:30.736Z,16.82
2023-04-28T19:13:58.313Z,16.79
2023-04-28T19:16:25.370Z,16.78
2023-04-28T19:18:52.276Z,16.75
2023-04-28T19:21:19.094Z,16.75
2023-04-28T19:23:46.324Z,16.73
2023-04-28T19:26:14.230Z,16.71
2023-04-28T19:28:43.741Z,16.69
2023-04-28T19:31:12.097Z,16.67
2023-04-28T19:33:39.497Z,16.65
2023-04-28T19:36:07.853Z,16.63
2023-04-28T19:38:35.777Z,16.60
2023-04-28T19:41:10.492Z,16.58
2023-04-28T19:43:39.210Z,16.55
2023-04-28T19:46:06.756Z,16.52
2023-04-28T19:48:37.488Z,16.47
2023-04-28T19:51:05.315Z,16.45
2023-04-28T19:53:32.788Z,16.41
2023-04-28T19:56:04.615Z,16.32
2023-04-28T19:58:38.731Z,16.31
2023-04-28T20:01:14.129Z,16.24
2023-04-28T20:03:42.254Z,16.18
2023-04-28T20:06:10.632Z,16.17
2023-04-28T20:08:39.183Z,16.14
2023-04-28T20:11:07.077Z,16.06
2023-04-28T20:13:35.075Z,16.00
2023-04-28T20:16:07.046Z,15.94
2023-04-28T20:18:35.530Z,15.87
2023-04-28T20:21:05.885Z,15.84
2023-04-28T20:23:33.019Z,15.76
2023-04-28T20:26:03.697Z,15.77
2023-04-28T20:28:33.716Z,15.71
2023-04-28T20:31:01.201Z,15.69
2023-04-28T20:33:28.032Z,15.66
2023-04-28T20:35:54.935Z,15.60
2023-04-28T20:38:21.781Z,15.57
2023-04-28T20:40:48.665Z,15.53
2023-04-28T20:43:15.507Z,15.50
2023-04-28T20:45:42.654Z,15.49
2023-04-28T20:48:09.606Z,15.48
2023-04-28T20:50:41.140Z,15.47
2023-04-28T20:53:08.121Z,15.43
2023-04-28T20:55:34.956Z,15.42
2023-04-28T20:58:02.087Z,15.39
2023-04-28T21:00:28.948Z,15.31
2023-04-28T21:02:56.138Z,15.30
2023-04-28T21:05:23.924Z,15.34
2023-04-28T21:07:51.026Z,15.27
2023-04-28T21:10:17.896Z,15.25
2023-04-28T21:12:45.841Z,15.26
2023-04-28T21:15:12.697Z,15.18
2023-04-28T21:17:39.796Z,15.19
2023-04-28T21:20:07.251Z,15.16
2023-04-28T21:22:34.438Z,15.17
2023-04-28T21:25:01.515Z,15.15
2023-04-28T21:27:28.325Z,15.10
2023-04-28T21:29:55.096Z,15.06
2023-04-28T21:32:22.017Z,15.07
2023-04-28T21:34:49.627Z,15.05
2023-04-28T21:37:16.622Z,15.01
2023-04-28T21:39:43.457Z,15.01
2023-04-28T21:42:10.287Z,15.02
2023-04-28T21:44:37.777Z,14.96
2023-04-28T21:47:04.581Z,14.96
2023-04-28T21:49:31.559Z,14.97
2023-04-28T21:51:58.453Z,14.88
2023-04-28T21:54:25.236Z,14.91
2023-04-28T21:56:52.282Z,14.86
2023-04-28T21:59:19.091Z,14.89
2023-04-28T22:01:46.160Z,14.89
2023-04-28T22:04:13.447Z,14.90
2023-04-28T22:06:40.658Z,14.87
2023-04-28T22:09:07.495Z,14.88
2023-04-28T22:11:34.352Z,14.85
2023-04-28T22:14:01.230Z,14.84
2023-04-28T22:16:28.382Z,14.81
2023-04-28T22:18:55.274Z,14.76
2023-04-28T22:21:22.073Z,14.76
2023-04-28T22:23:49.044Z,14.74
2023-04-28T22:26:16.018Z,14.77
2023-04-28T22:28:42.867Z,14.68
2023-04-28T22:31:09.694Z,14.70
2023-04-28T22:33:38.858Z,14.70
2023-04-28T22:36:06.036Z,14.71
2023-04-28T22:38:33.180Z,14.72
2023-04-28T22:40:59.947Z,14.69
2023-04-28T22:43:27.859Z,14.68
2023-04-28T22:45:54.710Z,14.60
2023-04-28T22:48:21.692Z,14.59
2023-04-28T22:50:49.680Z,14.57
2023-04-28T22:53:16.489Z,14.49
2023-04-28T22:55:43.644Z,14.47
2023-04-28T22:58:11.096Z,14.39
2023-04-28T23:00:38.200Z,14.33
2023-04-28T23:03:05.282Z,14.38
2023-04-28T23:05:32.232Z,14.37
2023-04-28T23:07:59.051Z,14.36
2023-04-28T23:10:26.260Z,14.38
2023-04-28T23:12:53.107Z,14.38
2023-04-28T23:15:20.056Z,14.42
2023-04-28T23:17:47.098Z,14.41
2023-04-28T23:20:14.084Z,14.33
2023-04-28T23:22:40.982Z,14.41
2023-04-28T23:25:08.328Z,14.26
2023-04-28T23:27:35.729Z,14.32
2023-04-28T23:30:02.560Z,14.25
2023-04-28T23:32:29.411Z,14.23
2023-04-28T23:34:56.351Z,14.23
2023-04-28T23:37:23.162Z,14.30
2023-04-28T23:39:50.168Z,14.26
2023-04-28T23:42:17.766Z,14.19
2023-04-28T23:44:44.634Z,14.15
2023-04-28T23:47:12.236Z,14.08
2023-04-28T23:49:39.090Z,14.13
2023-04-28T23:52:07.747Z,14.12
2023-04-28T23:54:34.627Z,14.08
2023-04-28T23:57:01.400Z,14.08
2023-04-28T23:59:29.027Z,14.04
